createdAt,value
2023-01-03T00:00:41.130Z,88
2023-01-03T00:01:48.236Z,88
2023-01-03T00:02:55.328Z,88
2023-01-03T00:04:02.574Z,88
2023-01-03T00:05:09.558Z,89
2023-01-03T00:06:16.763Z,88
2023-01-03T00:07:26.414Z,88
2023-01-03T00:08:38.829Z,89
2023-01-03T00:09:45.771Z,89
2023-01-03T00:10:52.880Z,89
2023-01-03T00:12:00.097Z,88
2023-01-03T00:13:12.107Z,88
2023-01-03T00:14:19.570Z,88
2023-01-03T00:15:29.486Z,88
2023-01-03T00:16:39.284Z,88
2023-01-03T00:17:46.374Z,88
2023-01-03T00:18:53.561Z,88
2023-01-03T00:20:00.713Z,88
2023-01-03T00:21:08.163Z,89
2023-01-03T00:22:15.420Z,89
2023-01-03T00:23:22.499Z,88
2023-01-03T00:24:29.663Z,88
2023-01-03T00:25:37.723Z,88
2023-01-03T00:26:44.960Z,88
2023-01-03T00:27:52.152Z,88
2023-01-03T00:28:59.261Z,88
2023-01-03T00:30:06.194Z,88
2023-01-03T00:31:13.418Z,88
2023-01-03T00:32:20.491Z,89
2023-01-03T00:33:27.843Z,89
2023-01-03T00:34:34.937Z,88
2023-01-03T00:35:41.914Z,88
2023-01-03T00:36:49.058Z,88
2023-01-03T00:37:56.406Z,88
2023-01-03T00:39:03.369Z,88
2023-01-03T00:40:10.447Z,88
2023-01-03T00:41:17.452Z,89
2023-01-03T00:42:24.593Z,89
2023-01-03T00:43:31.790Z,89
2023-01-03T00:44:38.913Z,89
2023-01-03T00:45:46.146Z,89
2023-01-03T00:46:54.097Z,89
2023-01-03T00:48:00.933Z,88
2023-01-03T00:49:07.836Z,88
2023-01-03T00:50:16.344Z,88
2023-01-03T00:51:23.122Z,89
2023-01-03T00:52:30.356Z,89
2023-01-03T00:53:37.438Z,88
2023-01-03T00:54:44.717Z,89
2023-01-03T00:55:51.679Z,89
2023-01-03T00:56:58.922Z,89
2023-01-03T00:58:05.874Z,88
2023-01-03T00:59:13.926Z,88
2023-01-03T01:00:21.162Z,89
2023-01-03T01:01:28.503Z,89
2023-01-03T01:02:38.233Z,89
2023-01-03T01:03:45.314Z,89
2023-01-03T01:04:55.603Z,88
2023-01-03T01:06:02.541Z,89
2023-01-03T01:07:14.711Z,89
2023-01-03T01:08:21.751Z,89
2023-01-03T01:09:28.932Z,89
2023-01-03T01:10:36.102Z,89
2023-01-03T01:11:48.436Z,89
2023-01-03T01:12:55.451Z,89
2023-01-03T01:14:03.610Z,89
2023-01-03T01:15:13.618Z,89
2023-01-03T01:16:21.145Z,89
2023-01-03T01:17:30.994Z,89
2023-01-03T01:18:38.341Z,89
2023-01-03T01:19:45.348Z,89
2023-01-03T01:20:52.746Z,89
2023-01-03T01:21:59.566Z,88
2023-01-03T01:23:06.499Z,89
2023-01-03T01:24:17.885Z,89
2023-01-03T01:25:21.926Z,89
2023-01-03T01:26:28.997Z,89
2023-01-03T01:27:36.158Z,89
2023-01-03T01:28:43.379Z,89
2023-01-03T01:29:50.456Z,89
2023-01-03T01:30:57.602Z,88
2023-01-03T01:32:05.193Z,88
2023-01-03T01:33:12.294Z,89
2023-01-03T01:34:19.423Z,89
2023-01-03T01:35:26.518Z,89
2023-01-03T01:36:33.685Z,89
2023-01-03T01:37:43.418Z,88
2023-01-03T01:38:51.027Z,88
2023-01-03T01:40:03.277Z,88
2023-01-03T01:41:10.265Z,88
2023-01-03T01:42:19.969Z,89
2023-01-03T01:43:30.182Z,89
2023-01-03T01:44:42.468Z,89
2023-01-03T01:45:49.651Z,89
2023-01-03T01:46:56.984Z,89
2023-01-03T01:48:03.996Z,89
2023-01-03T01:49:10.775Z,88
2023-01-03T01:50:20.834Z,88
2023-01-03T01:51:34.460Z,88
2023-01-03T01:52:41.478Z,89
2023-01-03T01:53:56.226Z,89
2023-01-03T01:55:03.439Z,89
2023-01-03T01:56:10.929Z,88
2023-01-03T01:57:23.286Z,89
2023-01-03T01:58:30.662Z,89
2023-01-03T01:59:40.498Z,88
2023-01-03T02:00:47.618Z,88
2023-01-03T02:01:54.839Z,88
2023-01-03T02:03:02.059Z,88
2023-01-03T02:04:08.871Z,89
2023-01-03T02:05:18.576Z,88
2023-01-03T02:06:25.844Z,88
2023-01-03T02:07:32.838Z,88
2023-01-03T02:08:40.028Z,88
2023-01-03T02:09:47.158Z,88
2023-01-03T02:10:54.373Z,88
2023-01-03T02:12:01.497Z,88
2023-01-03T02:13:13.604Z,88
2023-01-03T02:14:20.724Z,88
2023-01-03T02:15:30.954Z,88
2023-01-03T02:16:40.676Z,88
2023-01-03T02:17:58.059Z,88
2023-01-03T02:19:10.198Z,88
2023-01-03T02:20:27.504Z,88
2023-01-03T02:21:42.393Z,88
2023-01-03T02:22:58.466Z,88
2023-01-03T02:24:08.138Z,89
2023-01-03T02:25:15.271Z,88
2023-01-03T02:26:32.674Z,88
2023-01-03T02:27:45.977Z,88
2023-01-03T02:29:01.400Z,88
2023-01-03T02:30:19.256Z,88
2023-01-03T02:31:34.285Z,87
2023-01-03T02:32:50.618Z,88
2023-01-03T02:34:07.785Z,87
2023-01-03T02:35:19.981Z,87
2023-01-03T02:36:35.416Z,88
2023-01-03T02:37:44.994Z,87
2023-01-03T02:38:57.289Z,87
2023-01-03T02:40:09.341Z,87
2023-01-03T02:41:21.641Z,87
2023-01-03T02:42:28.794Z,88
2023-01-03T02:43:41.090Z,87
2023-01-03T02:44:54.326Z,87
2023-01-03T02:46:11.575Z,87
2023-01-03T02:47:28.943Z,86
2023-01-03T02:48:36.210Z,86
2023-01-03T02:49:51.397Z,86
2023-01-03T02:50:58.563Z,86
2023-01-03T02:52:05.862Z,87
2023-01-03T02:53:13.235Z,86
2023-01-03T02:54:20.317Z,86
2023-01-03T02:55:32.751Z,86
2023-01-03T02:56:39.716Z,86
2023-01-03T02:57:52.494Z,86
2023-01-03T02:59:05.287Z,86
2023-01-03T03:00:12.309Z,86
2023-01-03T03:01:19.495Z,86
2023-01-03T03:02:26.647Z,86
2023-01-03T03:03:33.706Z,86
2023-01-03T03:04:40.771Z,87
2023-01-03T03:05:47.927Z,87
2023-01-03T03:07:00.147Z,87
2023-01-03T03:08:16.122Z,87
2023-01-03T03:09:23.000Z,87
2023-01-03T03:10:30.170Z,87
2023-01-03T03:11:42.368Z,87
2023-01-03T03:12:54.671Z,87
2023-01-03T03:14:11.865Z,87
2023-01-03T03:15:24.411Z,87
2023-01-03T03:16:34.394Z,87
2023-01-03T03:17:46.671Z,87
2023-01-03T03:18:56.397Z,87
2023-01-03T03:20:06.712Z,87
2023-01-03T03:21:19.290Z,87
2023-01-03T03:22:31.357Z,88
2023-01-03T03:23:48.771Z,88
2023-01-03T03:25:01.119Z,87
2023-01-03T03:26:08.460Z,87
2023-01-03T03:27:18.526Z,87
2023-01-03T03:28:30.626Z,87
2023-01-03T03:29:41.017Z,87
2023-01-03T03:30:47.837Z,87
2023-01-03T03:31:55.049Z,87
2023-01-03T03:33:02.394Z,87
2023-01-03T03:34:09.609Z,87
2023-01-03T03:35:21.925Z,87
2023-01-03T03:36:28.951Z,87
2023-01-03T03:37:38.699Z,87
2023-01-03T03:38:45.973Z,87
2023-01-03T03:39:53.131Z,87
2023-01-03T03:41:05.387Z,87
2023-01-03T03:42:20.503Z,87
2023-01-03T03:43:37.867Z,87
2023-01-03T03:44:50.112Z,87
2023-01-03T03:46:02.371Z,87
2023-01-03T03:47:14.746Z,87
2023-01-03T03:48:32.230Z,87
2023-01-03T03:49:44.596Z,87
2023-01-03T03:50:51.802Z,87
2023-01-03T03:52:01.408Z,87
2023-01-03T03:53:13.454Z,87
2023-01-03T03:54:20.603Z,87
2023-01-03T03:55:27.791Z,87
2023-01-03T03:56:37.957Z,87
2023-01-03T03:57:45.140Z,87
2023-01-03T03:58:57.460Z,87
2023-01-03T04:00:04.529Z,87
2023-01-03T04:01:13.244Z,87
2023-01-03T04:02:20.464Z,87
2023-01-03T04:03:27.487Z,86
2023-01-03T04:04:34.526Z,87
2023-01-03T04:05:41.638Z,87
2023-01-03T04:06:48.848Z,87
2023-01-03T04:07:56.028Z,87
2023-01-03T04:09:03.301Z,88
2023-01-03T04:10:10.829Z,88
2023-01-03T04:11:17.790Z,88
2023-01-03T04:12:24.923Z,88
2023-01-03T04:13:32.108Z,87
2023-01-03T04:14:39.219Z,87
2023-01-03T04:15:46.472Z,87
2023-01-03T04:16:53.688Z,87
2023-01-03T04:18:00.691Z,87
2023-01-03T04:19:07.842Z,87
2023-01-03T04:20:14.882Z,87
2023-01-03T04:21:22.038Z,87
2023-01-03T04:22:29.180Z,87
2023-01-03T04:23:36.618Z,87
2023-01-03T04:24:43.502Z,87
2023-01-03T04:25:50.608Z,87
2023-01-03T04:26:57.810Z,88
2023-01-03T04:28:05.862Z,87
2023-01-03T04:29:13.097Z,87
2023-01-03T04:30:20.075Z,88
2023-01-03T04:31:27.363Z,87
2023-01-03T04:32:35.318Z,88
2023-01-03T04:33:42.170Z,87
2023-01-03T04:34:49.295Z,87
2023-01-03T04:35:56.527Z,87
2023-01-03T04:37:03.655Z,87
2023-01-03T04:38:10.584Z,87
2023-01-03T04:39:17.681Z,87
2023-01-03T04:40:24.882Z,87
2023-01-03T04:41:32.074Z,88
2023-01-03T04:42:39.299Z,88
2023-01-03T04:43:51.533Z,88
2023-01-03T04:45:03.778Z,88
2023-01-03T04:46:11.564Z,87
2023-01-03T04:47:18.434Z,88
2023-01-03T04:48:25.632Z,88
2023-01-03T04:49:32.755Z,88
2023-01-03T04:50:39.850Z,88
2023-01-03T04:51:47.049Z,88
2023-01-03T04:52:54.152Z,88
2023-01-03T04:54:01.410Z,88
2023-01-03T04:55:09.466Z,88
2023-01-03T04:56:16.321Z,88
2023-01-03T04:57:31.280Z,88
2023-01-03T04:58:38.415Z,88
2023-01-03T04:59:45.545Z,88
2023-01-03T05:00:52.868Z,88
2023-01-03T05:02:02.727Z,88
2023-01-03T05:03:09.618Z,87
2023-01-03T05:04:16.611Z,88
2023-01-03T05:05:23.834Z,88
2023-01-03T05:06:32.060Z,88
2023-01-03T05:07:39.098Z,88
2023-01-03T05:08:46.226Z,88
2023-01-03T05:09:53.442Z,87
2023-01-03T05:11:00.547Z,87
2023-01-03T05:12:07.947Z,88
2023-01-03T05:13:15.170Z,88
2023-01-03T05:14:23.995Z,87
2023-01-03T05:15:30.937Z,87
2023-01-03T05:16:38.121Z,87
2023-01-03T05:17:45.287Z,88
2023-01-03T05:18:52.914Z,87
2023-01-03T05:20:00.465Z,88
2023-01-03T05:21:14.150Z,88
2023-01-03T05:22:26.460Z,88
2023-01-03T05:23:38.759Z,88
2023-01-03T05:24:50.991Z,88
2023-01-03T05:26:03.355Z,88
2023-01-03T05:27:15.856Z,88
2023-01-03T05:28:22.971Z,88
2023-01-03T05:29:30.195Z,88
2023-01-03T05:30:37.275Z,88
2023-01-03T05:31:44.499Z,88
2023-01-03T05:32:51.526Z,88
2023-01-03T05:33:58.743Z,88
2023-01-03T05:35:06.018Z,88
2023-01-03T05:36:13.539Z,88
2023-01-03T05:37:20.493Z,88
2023-01-03T05:38:27.691Z,88
2023-01-03T05:39:34.774Z,88
2023-01-03T05:40:41.991Z,88
2023-01-03T05:41:49.229Z,88
2023-01-03T05:43:01.382Z,88
2023-01-03T05:44:08.635Z,88
2023-01-03T05:45:15.478Z,88
2023-01-03T05:46:23.123Z,88
2023-01-03T05:47:30.330Z,88
2023-01-03T05:48:38.189Z,88
2023-01-03T05:49:45.567Z,88
2023-01-03T05:50:53.668Z,88
2023-01-03T05:52:00.503Z,88
2023-01-03T05:53:07.785Z,88
2023-01-03T05:54:14.589Z,88
2023-01-03T05:55:21.685Z,88
2023-01-03T05:56:28.840Z,88
2023-01-03T05:57:36.042Z,88
2023-01-03T05:58:43.681Z,88
2023-01-03T05:59:50.823Z,88
2023-01-03T06:00:58.527Z,88
2023-01-03T06:02:06.028Z,88
2023-01-03T06:03:12.717Z,88
2023-01-03T06:04:19.897Z,88
2023-01-03T06:05:26.978Z,88
2023-01-03T06:06:34.208Z,88
2023-01-03T06:07:41.265Z,88
2023-01-03T06:08:48.490Z,88
2023-01-03T06:09:56.603Z,88
2023-01-03T06:11:03.821Z,88
2023-01-03T06:12:10.836Z,88
2023-01-03T06:13:18.028Z,88
2023-01-03T06:14:25.116Z,88
2023-01-03T06:15:32.316Z,88
2023-01-03T06:16:39.557Z,88
2023-01-03T06:17:51.723Z,88
2023-01-03T06:18:59.229Z,88
2023-01-03T06:20:06.521Z,88
2023-01-03T06:21:13.472Z,88
2023-01-03T06:22:21.042Z,88
2023-01-03T06:23:27.758Z,88
2023-01-03T06:24:35.312Z,88
2023-01-03T06:25:42.610Z,88
2023-01-03T06:26:49.770Z,88
2023-01-03T06:27:57.154Z,88
2023-01-03T06:29:04.220Z,88
2023-01-03T06:30:11.533Z,88
2023-01-03T06:31:18.750Z,88
2023-01-03T06:32:25.845Z,88
2023-01-03T06:33:32.998Z,88
2023-01-03T06:34:40.361Z,88
2023-01-03T06:35:47.432Z,88
2023-01-03T06:36:54.466Z,88
2023-01-03T06:38:01.661Z,88
2023-01-03T06:39:08.813Z,88
2023-01-03T06:40:15.805Z,88
2023-01-03T06:41:23.072Z,88
2023-01-03T06:42:30.114Z,88
2023-01-03T06:43:42.273Z,88
2023-01-03T06:44:50.478Z,88
2023-01-03T06:46:03.136Z,88
2023-01-03T06:47:16.138Z,88
2023-01-03T06:48:28.137Z,88
2023-01-03T06:49:40.570Z,88
2023-01-03T06:50:52.890Z,88
2023-01-03T06:52:05.693Z,88
2023-01-03T06:53:17.819Z,87
2023-01-03T06:54:25.069Z,87
2023-01-03T06:55:34.742Z,88
2023-01-03T06:56:41.879Z,88
2023-01-03T06:57:49.135Z,88
2023-01-03T06:58:56.122Z,88
2023-01-03T07:00:03.637Z,88
2023-01-03T07:01:10.915Z,88
2023-01-03T07:02:18.220Z,88
2023-01-03T07:03:25.184Z,88
2023-01-03T07:04:32.423Z,88
2023-01-03T07:05:39.386Z,88
2023-01-03T07:06:46.603Z,88
2023-01-03T07:07:54.046Z,88
2023-01-03T07:09:00.970Z,88
2023-01-03T07:10:08.849Z,88
2023-01-03T07:11:17.567Z,88
2023-01-03T07:12:24.658Z,88
2023-01-03T07:13:37.914Z,88
2023-01-03T07:14:50.298Z,88
2023-01-03T07:15:59.110Z,88
2023-01-03T07:17:07.043Z,88
2023-01-03T07:18:14.078Z,88
2023-01-03T07:19:21.226Z,88
2023-01-03T07:20:28.432Z,88
2023-01-03T07:21:36.386Z,88
2023-01-03T07:22:43.643Z,88
2023-01-03T07:23:50.903Z,88
2023-01-03T07:24:58.132Z,88
2023-01-03T07:26:05.119Z,88
2023-01-03T07:27:12.062Z,87
2023-01-03T07:28:21.145Z,88
2023-01-03T07:29:28.362Z,87
2023-01-03T07:30:35.786Z,87
2023-01-03T07:31:42.934Z,87
2023-01-03T07:32:49.911Z,87
2023-01-03T07:33:57.070Z,87
2023-01-03T07:35:04.218Z,87
2023-01-03T07:36:12.301Z,87
2023-01-03T07:37:19.573Z,86
2023-01-03T07:38:27.501Z,87
2023-01-03T07:39:35.615Z,87
2023-01-03T07:40:42.847Z,87
2023-01-03T07:41:49.910Z,87
2023-01-03T07:43:02.210Z,87
2023-01-03T07:44:14.691Z,87
2023-01-03T07:45:21.926Z,87
2023-01-03T07:46:28.965Z,87
2023-01-03T07:47:36.041Z,87
2023-01-03T07:48:43.173Z,87
2023-01-03T07:49:50.447Z,87
2023-01-03T07:50:57.701Z,87
2023-01-03T07:52:04.701Z,87
2023-01-03T07:53:11.558Z,87
2023-01-03T07:54:18.718Z,87
2023-01-03T07:55:25.789Z,87
2023-01-03T07:56:33.055Z,87
2023-01-03T07:57:40.306Z,87
2023-01-03T07:58:47.382Z,87
2023-01-03T07:59:54.461Z,87
2023-01-03T08:01:01.685Z,87
2023-01-03T08:02:12.617Z,87
2023-01-03T08:03:19.240Z,87
2023-01-03T08:04:26.814Z,87
2023-01-03T08:05:33.731Z,87
2023-01-03T08:06:40.883Z,87
2023-01-03T08:07:47.854Z,86
2023-01-03T08:08:55.030Z,86
2023-01-03T08:10:07.209Z,86
2023-01-03T08:11:19.892Z,86
2023-01-03T08:12:32.339Z,86
2023-01-03T08:13:44.480Z,86
2023-01-03T08:14:51.466Z,85
2023-01-03T08:15:58.634Z,86
2023-01-03T08:17:05.962Z,86
2023-01-03T08:18:13.104Z,85
2023-01-03T08:19:20.220Z,86
2023-01-03T08:20:27.555Z,85
2023-01-03T08:21:34.694Z,85
2023-01-03T08:22:41.829Z,85
2023-01-03T08:23:49.114Z,85
2023-01-03T08:24:56.026Z,86
2023-01-03T08:26:04.173Z,86
2023-01-03T08:27:16.197Z,85
2023-01-03T08:28:23.960Z,85
2023-01-03T08:29:32.194Z,85
2023-01-03T08:30:40.615Z,85
2023-01-03T08:31:47.948Z,86
2023-01-03T08:32:56.201Z,85
2023-01-03T08:40:16.233Z,85
2023-01-03T08:41:24.551Z,86
2023-01-03T08:42:31.957Z,86
2023-01-03T08:43:39.339Z,86
2023-01-03T08:44:46.366Z,86
2023-01-03T08:48:41.221Z,85
2023-01-03T08:49:49.410Z,86
2023-01-03T08:50:56.765Z,85
2023-01-03T08:52:03.750Z,85
2023-01-03T09:00:43.470Z,85
2023-01-03T09:01:51.798Z,85
2023-01-03T09:03:01.828Z,85
2023-01-03T09:04:09.538Z,85
2023-01-03T09:05:16.613Z,86
2023-01-03T09:07:06.074Z,86
2023-01-03T09:08:12.983Z,85
2023-01-03T09:09:20.349Z,86
2023-01-03T09:10:27.304Z,86
2023-01-03T09:11:34.409Z,86
2023-01-03T09:17:26.808Z,86
2023-01-03T09:18:35.027Z,86
2023-01-03T09:19:42.244Z,86
2023-01-03T09:20:49.188Z,86
2023-01-03T09:21:57.204Z,86
2023-01-03T09:27:27.047Z,86
2023-01-03T09:28:34.315Z,86
2023-01-03T09:29:42.575Z,86
2023-01-03T09:30:49.789Z,86
2023-01-03T09:31:57.182Z,86
2023-01-03T09:41:22.651Z,86
2023-01-03T09:42:32.289Z,85
2023-01-03T09:43:44.877Z,86
2023-01-03T09:44:52.144Z,86
2023-01-03T09:45:59.721Z,86
2023-01-03T09:47:52.274Z,86
2023-01-03T09:48:59.741Z,85
2023-01-03T09:51:27.625Z,86
2023-01-03T09:52:34.410Z,85
2023-01-03T09:54:11.685Z,85
2023-01-03T09:55:32.229Z,85
2023-01-03T09:56:47.306Z,85
2023-01-03T09:57:59.565Z,85
2023-01-03T09:59:20.380Z,85
2023-01-03T10:00:32.582Z,85
2023-01-03T10:01:45.830Z,85
2023-01-03T10:03:06.267Z,85
2023-01-03T10:04:57.101Z,85
2023-01-03T10:06:14.322Z,84
2023-01-03T10:07:28.902Z,84
2023-01-03T10:08:36.066Z,83
2023-01-03T10:09:45.862Z,83
2023-01-03T10:15:02.344Z,83
2023-01-03T10:16:19.967Z,84
2023-01-03T10:17:31.960Z,85
2023-01-03T10:18:44.476Z,84
2023-01-03T10:20:19.616Z,84
2023-01-03T10:21:27.184Z,84
2023-01-03T10:22:40.212Z,84
2023-01-03T10:23:47.411Z,83
2023-01-03T10:24:55.304Z,83
2023-01-03T10:32:42.508Z,83
2023-01-03T10:33:58.921Z,82
2023-01-03T10:35:06.784Z,82
2023-01-03T10:36:19.651Z,82
2023-01-03T10:37:26.369Z,81
2023-01-03T10:41:32.408Z,81
2023-01-03T10:42:50.036Z,80
2023-01-03T10:43:57.967Z,81
2023-01-03T10:45:05.104Z,81
2023-01-03T10:46:15.269Z,81
2023-01-03T10:53:37.511Z,80
2023-01-03T10:54:44.298Z,79
2023-01-03T10:55:56.541Z,78
2023-01-03T10:57:04.121Z,78
2023-01-03T11:16:46.131Z,78
2023-01-03T11:17:58.522Z,77
2023-01-03T11:19:05.535Z,77
2023-01-03T11:20:12.399Z,76
2023-01-03T11:21:22.215Z,76
2023-01-03T11:23:14.530Z,76
2023-01-03T11:24:24.267Z,76
2023-01-03T11:25:36.368Z,76
2023-01-03T11:26:48.572Z,77
2023-01-03T11:28:09.135Z,77
2023-01-03T11:30:01.771Z,77
2023-01-03T11:31:16.531Z,77
2023-01-03T11:32:32.769Z,77
2023-01-03T11:33:47.036Z,76
2023-01-03T11:58:51.712Z,75
2023-01-03T11:59:58.701Z,75
2023-01-03T12:01:08.913Z,75
2023-01-03T12:02:24.882Z,75
2023-01-03T12:03:41.285Z,75
2023-01-03T12:08:59.888Z,75
2023-01-03T12:10:11.709Z,75
2023-01-03T12:11:22.806Z,76
2023-01-03T12:12:34.775Z,77
2023-01-03T12:13:46.919Z,76
2023-01-03T12:15:09.608Z,75
2023-01-03T12:16:16.739Z,75
2023-01-03T12:17:31.677Z,76
2023-01-03T12:18:49.232Z,76
2023-01-03T12:20:21.776Z,76
2023-01-03T12:21:33.663Z,76
2023-01-03T12:22:46.984Z,76
2023-01-03T12:23:57.320Z,75
2023-01-03T12:25:09.476Z,75
2023-01-03T12:26:32.271Z,75
2023-01-03T12:27:40.235Z,75
2023-01-03T12:28:50.395Z,74
2023-01-03T12:30:03.435Z,74
2023-01-03T12:31:21.705Z,75
2023-01-03T12:32:30.557Z,74
2023-01-03T12:33:43.382Z,72
2023-01-03T12:35:00.952Z,73
2023-01-03T12:36:39.617Z,72
2023-01-03T12:37:54.239Z,72
2023-01-03T12:39:01.544Z,72
2023-01-03T12:40:19.369Z,72
2023-01-03T12:41:36.456Z,72
2023-01-03T12:42:59.781Z,70
2023-01-03T12:44:12.321Z,71
2023-01-03T12:45:32.992Z,70
2023-01-03T12:46:44.335Z,70
2023-01-03T12:47:51.652Z,70
2023-01-03T12:49:09.348Z,70
2023-01-03T12:50:21.859Z,70
2023-01-03T12:51:38.368Z,71
2023-01-03T12:52:47.648Z,70
2023-01-03T12:53:55.992Z,69
2023-01-03T12:55:08.868Z,69
2023-01-03T12:56:21.443Z,69
2023-01-03T12:57:38.527Z,69
2023-01-03T12:58:56.687Z,69
2023-01-03T13:00:04.526Z,69
2023-01-03T13:01:15.074Z,69
2023-01-03T13:02:27.904Z,69
2023-01-03T13:03:39.738Z,69
2023-01-03T13:04:49.882Z,69
2023-01-03T13:05:56.878Z,69
2023-01-03T13:07:04.124Z,69
2023-01-03T13:08:11.823Z,69
2023-01-03T13:09:24.276Z,69
2023-01-03T13:10:31.749Z,69
2023-01-03T13:11:39.484Z,69
2023-01-03T13:12:46.397Z,70
2023-01-03T13:13:53.744Z,69
2023-01-03T13:15:07.434Z,69
2023-01-03T13:16:25.099Z,69
2023-01-03T13:17:41.543Z,69
2023-01-03T13:18:51.930Z,69
2023-01-03T13:19:59.117Z,69
2023-01-03T13:21:12.370Z,69
2023-01-03T13:22:29.909Z,69
2023-01-03T13:23:36.913Z,69
2023-01-03T13:24:49.992Z,69
2023-01-03T13:26:03.605Z,69
2023-01-03T13:27:22.890Z,69
2023-01-03T13:28:39.361Z,69
2023-01-03T13:29:48.409Z,69
2023-01-03T13:31:03.853Z,69
2023-01-03T13:32:16.237Z,69
2023-01-03T13:33:23.055Z,70
2023-01-03T13:34:30.647Z,70
2023-01-03T13:35:37.990Z,70
2023-01-03T13:36:48.000Z,70
2023-01-03T13:38:05.720Z,70
2023-01-03T13:39:21.977Z,70
2023-01-03T13:41:15.789Z,69
2023-01-03T13:41:47.070Z,69
2023-01-03T13:42:56.772Z,69
2023-01-03T13:44:04.037Z,69
2023-01-03T13:45:17.572Z,69
2023-01-03T13:46:27.305Z,70
2023-01-03T13:47:36.936Z,69
2023-01-03T13:48:44.392Z,69
2023-01-03T13:50:00.514Z,70
2023-01-03T13:51:07.472Z,70
2023-01-03T13:52:19.634Z,71
2023-01-03T13:53:37.071Z,71
2023-01-03T13:54:54.469Z,71
2023-01-03T13:56:01.480Z,71
2023-01-03T13:57:18.749Z,71
2023-01-03T13:58:30.960Z,71
2023-01-03T13:59:40.649Z,71
2023-01-03T14:00:48.851Z,71
2023-01-03T14:01:58.613Z,70
2023-01-03T14:03:10.816Z,70
2023-01-03T14:04:30.456Z,70
2023-01-03T14:05:47.896Z,70
2023-01-03T14:07:00.353Z,69
2023-01-03T14:08:15.371Z,69
2023-01-03T14:09:32.644Z,68
2023-01-03T14:10:50.847Z,68
2023-01-03T14:12:09.335Z,68
2023-01-03T14:13:21.548Z,68
2023-01-03T14:14:33.744Z,68
2023-01-03T14:15:40.901Z,67
2023-01-03T14:16:48.024Z,67
2023-01-03T14:17:55.305Z,67
2023-01-03T14:19:05.607Z,67
2023-01-03T14:20:18.558Z,66
2023-01-03T14:21:26.197Z,66
2023-01-03T14:22:43.737Z,66
2023-01-03T14:24:00.971Z,67
2023-01-03T14:24:59.124Z,66
2023-01-03T14:26:06.468Z,66
2023-01-03T14:27:17.363Z,66
2023-01-03T14:28:23.372Z,66
2023-01-03T14:29:35.421Z,66
2023-01-03T14:30:42.578Z,66
2023-01-03T14:31:49.653Z,66
2023-01-03T14:32:56.646Z,66
2023-01-03T14:34:09.637Z,66
2023-01-03T14:35:26.799Z,66
2023-01-03T14:36:41.646Z,66
2023-01-03T14:37:49.540Z,66
2023-01-03T14:38:56.444Z,65
2023-01-03T14:40:03.835Z,65
2023-01-03T14:41:12.993Z,66
2023-01-03T14:42:30.541Z,65
2023-01-03T14:43:37.637Z,65
2023-01-03T14:44:45.290Z,66
2023-01-03T14:46:04.844Z,65
2023-01-03T14:47:12.375Z,66
2023-01-03T14:48:19.390Z,66
2023-01-03T14:49:26.889Z,66
2023-01-03T14:50:39.216Z,66
2023-01-03T14:52:56.977Z,66
2023-01-03T14:54:04.273Z,67
2023-01-03T14:55:11.444Z,66
2023-01-03T14:56:18.431Z,67
2023-01-03T14:57:25.691Z,67
2023-01-03T14:59:19.291Z,67
2023-01-03T15:00:32.397Z,67
2023-01-03T15:01:35.030Z,68
2023-01-03T15:02:42.181Z,67
2023-01-03T15:03:49.786Z,68
2023-01-03T15:04:57.056Z,68
2023-01-03T15:06:04.028Z,68
2023-01-03T15:07:20.377Z,68
2023-01-03T15:08:34.256Z,68
2023-01-03T15:12:57.538Z,68
2023-01-03T15:14:01.882Z,68
2023-01-03T15:15:09.616Z,68
2023-01-03T15:16:24.488Z,68
2023-01-03T15:17:36.736Z,68
2023-01-03T15:18:43.844Z,68
2023-01-03T15:19:51.060Z,68
2023-01-03T15:20:58.265Z,69
2023-01-03T15:22:05.358Z,69
2023-01-03T15:23:17.473Z,69
2023-01-03T15:24:39.175Z,69
2023-01-03T15:25:41.859Z,69
2023-01-03T15:26:49.091Z,69
2023-01-03T15:27:56.263Z,69
2023-01-03T15:29:13.555Z,69
2023-01-03T15:30:23.118Z,69
2023-01-03T15:31:30.363Z,69
2023-01-03T15:32:37.318Z,69
2023-01-03T15:33:49.681Z,69
2023-01-03T15:35:06.911Z,69
2023-01-03T15:36:18.949Z,69
2023-01-03T15:37:22.160Z,69
2023-01-03T15:38:29.243Z,69
2023-01-03T15:39:41.447Z,69
2023-01-03T15:40:53.771Z,69
2023-01-03T15:42:19.947Z,69
2023-01-03T15:43:13.278Z,69
2023-01-03T15:44:23.523Z,69
2023-01-03T15:45:30.345Z,69
2023-01-03T15:46:42.827Z,69
2023-01-03T15:47:49.661Z,69
2023-01-03T15:48:56.984Z,69
2023-01-03T15:50:04.054Z,69
2023-01-03T15:51:11.211Z,69
2023-01-03T15:52:18.242Z,69
2023-01-03T15:53:26.788Z,69
2023-01-03T15:54:36.672Z,69
2023-01-03T15:55:43.748Z,69
2023-01-03T15:56:51.620Z,69
2023-01-03T15:57:58.522Z,70
2023-01-03T15:59:05.715Z,70
2023-01-03T16:00:12.825Z,70
2023-01-03T16:01:20.258Z,70
2023-01-03T16:02:27.107Z,70
2023-01-03T16:03:34.205Z,70
2023-01-03T16:04:41.224Z,70
2023-01-03T16:05:50.951Z,70
2023-01-03T16:06:58.338Z,70
2023-01-03T16:08:05.287Z,70
2023-01-03T16:09:15.302Z,70
2023-01-03T16:10:22.606Z,70
2023-01-03T16:11:34.340Z,70
2023-01-03T16:12:38.926Z,70
2023-01-03T16:13:45.975Z,70
2023-01-03T16:14:53.993Z,70
2023-01-03T16:16:00.783Z,70
2023-01-03T16:17:08.323Z,69
2023-01-03T16:18:15.420Z,69
2023-01-03T16:19:22.948Z,69
2023-01-03T16:20:30.259Z,70
2023-01-03T16:21:37.408Z,70
2023-01-03T16:22:54.059Z,70
2023-01-03T16:23:53.202Z,70
2023-01-03T16:25:00.426Z,70
2023-01-03T16:26:07.607Z,70
2023-01-03T16:27:14.476Z,70
2023-01-03T16:28:21.724Z,70
2023-01-03T16:29:29.842Z,70
2023-01-03T16:30:37.232Z,70
2023-01-03T16:31:44.609Z,70
2023-01-03T16:32:52.015Z,70
2023-01-03T16:33:58.831Z,70
2023-01-03T16:35:05.976Z,70
2023-01-03T16:36:19.090Z,71
2023-01-03T16:37:26.250Z,71
2023-01-03T16:38:33.368Z,71
2023-01-03T16:39:47.610Z,71
2023-01-03T16:40:48.738Z,71
2023-01-03T16:41:55.907Z,72
2023-01-03T16:43:08.096Z,72
2023-01-03T16:44:15.017Z,72
2023-01-03T16:45:22.194Z,72
2023-01-03T16:46:29.530Z,72
2023-01-03T16:47:36.457Z,72
2023-01-03T16:48:43.870Z,72
2023-01-03T16:49:51.682Z,72
2023-01-03T16:50:59.163Z,73
2023-01-03T16:52:06.977Z,73
2023-01-03T16:53:14.216Z,73
2023-01-03T16:54:29.675Z,73
2023-01-03T16:55:36.563Z,73
2023-01-03T16:56:43.909Z,73
2023-01-03T16:57:54.416Z,73
2023-01-03T16:58:59.200Z,73
2023-01-03T17:00:06.393Z,73
2023-01-03T17:01:14.007Z,74
2023-01-03T17:02:21.984Z,74
2023-01-03T17:03:29.972Z,74
2023-01-03T17:04:36.779Z,74
2023-01-03T17:05:43.936Z,74
2023-01-03T17:06:54.872Z,74
2023-01-03T17:08:02.232Z,74
2023-01-03T17:09:11.890Z,74
2023-01-03T17:10:21.617Z,74
2023-01-03T17:11:31.335Z,74
2023-01-03T17:12:38.380Z,74
2023-01-03T17:13:45.530Z,74
2023-01-03T17:14:53.318Z,75
2023-01-03T17:16:01.227Z,75
2023-01-03T17:17:08.575Z,75
2023-01-03T17:18:16.558Z,75
2023-01-03T17:20:01.854Z,75
2023-01-03T17:20:31.955Z,75
2023-01-03T17:21:39.070Z,75
2023-01-03T17:22:46.305Z,75
2023-01-03T17:23:54.290Z,75
2023-01-03T17:25:06.681Z,75
2023-01-03T17:26:13.857Z,76
2023-01-03T17:27:23.831Z,76
2023-01-03T17:28:28.166Z,76
2023-01-03T17:29:35.102Z,76
2023-01-03T17:30:42.212Z,76
2023-01-03T17:31:50.212Z,76
2023-01-03T17:32:57.128Z,77
2023-01-03T17:34:04.444Z,77
2023-01-03T17:35:17.693Z,77
2023-01-03T17:36:25.885Z,77
2023-01-03T17:37:45.633Z,77
2023-01-03T17:38:39.979Z,77
2023-01-03T17:39:47.002Z,77
2023-01-03T17:41:01.239Z,77
2023-01-03T17:42:08.767Z,77
2023-01-03T17:43:19.120Z,77
2023-01-03T17:44:26.150Z,77
2023-01-03T17:45:33.328Z,78
2023-01-03T17:46:45.588Z,78
2023-01-03T17:47:58.096Z,78
2023-01-03T17:49:10.585Z,78
2023-01-03T17:50:22.627Z,78
2023-01-03T17:51:29.807Z,78
2023-01-03T17:52:37.304Z,78
2023-01-03T17:53:44.677Z,78
2023-01-03T17:54:51.670Z,78
2023-01-03T17:55:58.954Z,78
2023-01-03T17:57:06.232Z,78
2023-01-03T17:58:13.231Z,79
2023-01-03T17:59:28.328Z,79
2023-01-03T18:00:35.538Z,79
2023-01-03T18:01:42.724Z,79
2023-01-03T18:02:51.447Z,79
2023-01-03T18:03:58.833Z,79
2023-01-03T18:05:16.190Z,79
2023-01-03T18:06:12.771Z,79
2023-01-03T18:07:19.768Z,79
2023-01-03T18:08:26.840Z,80
2023-01-03T18:09:34.008Z,80
2023-01-03T18:10:46.023Z,80
2023-01-03T18:11:48.453Z,80
2023-01-03T18:12:55.562Z,80
2023-01-03T18:14:02.695Z,80
2023-01-03T18:15:09.885Z,80
2023-01-03T18:16:19.927Z,80
2023-01-03T18:17:27.017Z,80
2023-01-03T18:18:34.591Z,80
2023-01-03T18:19:41.951Z,80